createdAt,value
2022-11-20T00:01:26.610Z,72.22
2022-11-20T00:03:55.058Z,72.51
2022-11-20T00:06:22.724Z,72.20
2022-11-20T00:08:49.651Z,72.47
2022-11-20T00:11:21.507Z,71.86
2022-11-20T00:13:49.947Z,71.68
2022-11-20T00:16:19.313Z,72.00
2022-11-20T00:18:46.387Z,71.53
2022-11-20T00:21:18.117Z,71.59
2022-11-20T00:23:44.883Z,71.29
2022-11-20T00:26:14.410Z,71.33
2022-11-20T00:28:41.594Z,70.91
2022-11-20T00:31:16.933Z,70.87
2022-11-20T00:33:44.654Z,71.11
2022-11-20T00:36:13.887Z,70.53
2022-11-20T00:38:40.743Z,71.20
2022-11-20T00:41:10.179Z,70.67
2022-11-20T00:43:37.488Z,70.58
2022-11-20T00:46:10.116Z,70.56
2022-11-20T00:48:36.758Z,70.50
2022-11-20T00:51:03.276Z,70.28
2022-11-20T00:53:29.741Z,70.42
2022-11-20T00:55:57.936Z,70.28
2022-11-20T00:58:25.577Z,70.14
2022-11-20T01:00:52.221Z,70.30
2022-11-20T01:03:24.136Z,70.74
2022-11-20T01:05:53.303Z,70.03
2022-11-20T01:08:19.719Z,70.29
2022-11-20T01:10:46.137Z,69.80
2022-11-20T01:13:30.970Z,69.54
2022-11-20T01:16:03.684Z,69.20
2022-11-20T01:18:30.127Z,68.89
2022-11-20T01:20:56.610Z,69.76
2022-11-20T01:23:23.202Z,69.72
2022-11-20T01:25:49.718Z,69.82
2022-11-20T01:28:16.238Z,70.18
2022-11-20T01:30:42.685Z,70.14
2022-11-20T01:33:09.106Z,69.92
2022-11-20T01:35:35.606Z,69.05
2022-11-20T01:38:02.057Z,70.15
2022-11-20T01:40:28.471Z,69.23
2022-11-20T01:43:24.191Z,69.25
2022-11-20T01:46:20.501Z,69.25
2022-11-20T01:48:56.955Z,70.03
2022-11-20T01:51:44.731Z,69.79
2022-11-20T01:54:18.075Z,70.12
2022-11-20T01:56:47.405Z,69.66
2022-11-20T01:59:18.942Z,69.80
2022-11-20T02:01:46.094Z,69.81
2022-11-20T02:04:14.735Z,69.95
2022-11-20T02:07:24.946Z,69.25
2022-11-20T02:09:57.384Z,70.31
2022-11-20T02:12:43.624Z,69.65
2022-11-20T02:15:10.485Z,69.46
2022-11-20T02:17:37.078Z,69.38
2022-11-20T02:20:05.358Z,69.74
2022-11-20T02:22:39.507Z,69.46
2022-11-20T02:25:08.645Z,69.68
2022-11-20T02:27:35.263Z,69.59
2022-11-20T02:30:04.515Z,69.52
2022-11-20T02:32:33.846Z,69.41
2022-11-20T02:35:27.681Z,69.77
2022-11-20T02:37:56.826Z,69.98
2022-11-20T02:40:23.927Z,69.72
2022-11-20T02:42:57.766Z,70.15
2022-11-20T02:45:24.999Z,69.41
2022-11-20T02:47:52.314Z,69.88
2022-11-20T02:50:19.010Z,69.74
2022-11-20T02:52:45.426Z,69.06
2022-11-20T02:55:12.019Z,69.30
2022-11-20T02:57:38.479Z,68.56
2022-11-20T03:00:05.642Z,68.39
2022-11-20T03:02:32.456Z,68.24
2022-11-20T03:04:59.133Z,69.26
2022-11-20T03:07:26.551Z,68.82
2022-11-20T03:09:53.042Z,68.63
2022-11-20T03:12:19.482Z,67.94
2022-11-20T03:14:50.189Z,67.33
2022-11-20T03:17:19.341Z,68.23
2022-11-20T03:19:45.790Z,68.29
2022-11-20T03:22:12.245Z,68.58
2022-11-20T03:24:38.730Z,69.20
2022-11-20T03:27:05.223Z,69.24
2022-11-20T03:29:31.690Z,69.00
2022-11-20T03:31:58.227Z,68.79
2022-11-20T03:34:24.794Z,68.99
2022-11-20T03:36:51.187Z,69.28
2022-11-20T03:39:17.581Z,69.07
2022-11-20T03:41:44.388Z,69.11
2022-11-20T03:44:12.378Z,68.53
2022-11-20T03:46:39.180Z,68.54
2022-11-20T03:49:05.760Z,69.13
2022-11-20T03:51:34.569Z,69.93
2022-11-20T03:54:04.364Z,68.91
2022-11-20T03:56:33.223Z,69.41
2022-11-20T03:59:00.003Z,68.59
2022-11-20T04:01:29.287Z,68.50
2022-11-20T04:03:57.344Z,68.74
2022-11-20T04:06:26.835Z,68.62
2022-11-20T04:08:56.473Z,68.15
2022-11-20T04:11:26.022Z,68.36
2022-11-20T04:13:58.055Z,68.65
2022-11-20T04:16:26.085Z,68.98
2022-11-20T04:18:57.348Z,69.22
2022-11-20T04:21:24.600Z,69.36
2022-11-20T04:23:52.230Z,69.35
2022-11-20T04:26:18.682Z,69.44
2022-11-20T04:28:45.107Z,68.41
2022-11-20T04:31:17.488Z,68.45
2022-11-20T04:33:44.601Z,69.33
2022-11-20T04:36:17.347Z,68.22
2022-11-20T04:38:44.207Z,69.56
2022-11-20T04:41:21.999Z,69.36
2022-11-20T04:43:50.425Z,68.21
2022-11-20T04:46:21.295Z,68.60
2022-11-20T04:48:48.828Z,68.14
2022-11-20T04:51:15.719Z,68.34
2022-11-20T04:53:42.950Z,68.46
2022-11-20T04:56:11.960Z,67.74
2022-11-20T04:58:39.160Z,67.92
2022-11-20T05:01:09.770Z,68.36
2022-11-20T05:03:41.060Z,69.23
2022-11-20T05:06:10.375Z,69.49
2022-11-20T05:08:36.858Z,69.25
2022-11-20T05:11:08.921Z,69.75
2022-11-20T05:13:35.398Z,69.19
2022-11-20T05:16:06.659Z,68.88
2022-11-20T05:18:34.807Z,68.69
2022-11-20T05:21:01.273Z,68.23
2022-11-20T05:23:28.459Z,69.19
2022-11-20T05:25:59.229Z,68.74
2022-11-20T05:28:27.021Z,69.05
2022-11-20T05:30:53.496Z,69.06
2022-11-20T05:33:19.974Z,68.63
2022-11-20T05:35:46.409Z,69.45
2022-11-20T05:38:12.884Z,69.36
2022-11-20T05:40:39.386Z,69.40
2022-11-20T05:43:05.871Z,69.76
2022-11-20T05:45:32.362Z,69.46
2022-11-20T05:48:01.129Z,69.56
2022-11-20T05:50:30.982Z,69.37
2022-11-20T05:53:00.989Z,70.08
2022-11-20T05:55:28.351Z,70.15
2022-11-20T05:57:55.829Z,69.67
2022-11-20T06:00:22.689Z,68.71
2022-11-20T06:02:49.265Z,70.24
2022-11-20T06:05:15.786Z,70.01
2022-11-20T06:07:42.588Z,70.36
2022-11-20T06:10:09.480Z,69.92
2022-11-20T06:12:35.982Z,70.18
2022-11-20T06:15:02.684Z,70.29
2022-11-20T06:17:29.096Z,70.05
2022-11-20T06:19:55.523Z,70.01
2022-11-20T06:22:21.917Z,70.00
2022-11-20T06:24:48.721Z,70.09
2022-11-20T06:27:15.281Z,70.43
2022-11-20T06:29:41.779Z,70.27
2022-11-20T06:32:08.221Z,69.31
2022-11-20T06:34:34.675Z,69.84
2022-11-20T06:37:01.203Z,69.82
2022-11-20T06:39:27.716Z,69.74
2022-11-20T06:41:58.549Z,69.54
2022-11-20T06:44:25.550Z,70.20
2022-11-20T06:46:52.023Z,69.81
2022-11-20T06:49:18.448Z,70.45
2022-11-20T06:51:44.885Z,70.32
2022-11-20T06:54:11.420Z,70.82
2022-11-20T06:56:37.818Z,70.51
2022-11-20T06:59:08.102Z,71.05
2022-11-20T07:01:35.927Z,70.99
2022-11-20T07:04:02.997Z,71.08
2022-11-20T07:06:29.516Z,70.52
2022-11-20T07:08:55.965Z,70.71
2022-11-20T07:11:22.422Z,71.07
2022-11-20T07:13:48.837Z,70.74
2022-11-20T07:16:15.329Z,70.51
2022-11-20T07:18:45.924Z,71.26
2022-11-20T07:21:15.761Z,70.95
2022-11-20T07:23:42.213Z,70.21
2022-11-20T07:26:11.520Z,69.65
2022-11-20T07:28:38.344Z,69.45
2022-11-20T07:31:05.932Z,69.37
2022-11-20T07:33:32.433Z,70.02
2022-11-20T07:36:02.283Z,68.55
2022-11-20T07:38:28.735Z,69.09
2022-11-20T07:40:58.707Z,69.20
2022-11-20T07:43:26.220Z,69.08
2022-11-20T07:45:52.769Z,68.48
2022-11-20T07:48:19.144Z,68.06
2022-11-20T07:50:45.572Z,68.41
2022-11-20T07:53:13.354Z,68.86
2022-11-20T07:55:39.795Z,69.02
2022-11-20T07:58:06.445Z,68.36
2022-11-20T08:00:33.056Z,67.79
2022-11-20T08:02:59.630Z,68.18
2022-11-20T08:05:26.030Z,67.86
2022-11-20T08:07:52.453Z,67.94
2022-11-20T08:10:18.995Z,67.99
2022-11-20T08:13:08.905Z,67.20
2022-11-20T08:15:36.390Z,67.19
2022-11-20T08:21:04.760Z,68.47
2022-11-20T08:23:31.956Z,68.28
2022-11-20T08:25:58.444Z,68.40
2022-11-20T08:28:24.897Z,68.42
2022-11-20T08:30:51.726Z,67.75
2022-11-20T08:33:18.869Z,67.60
2022-11-20T08:35:45.437Z,68.03
2022-11-20T08:38:11.945Z,67.04
2022-11-20T08:40:38.498Z,67.73
2022-11-20T08:43:05.300Z,68.03
2022-11-20T08:45:34.496Z,67.83
2022-11-20T08:48:04.783Z,68.21
2022-11-20T08:50:33.336Z,67.84
2022-11-20T08:53:07.172Z,67.79
2022-11-20T08:55:36.282Z,68.82
2022-11-20T08:58:06.097Z,68.49
2022-11-20T09:00:33.932Z,68.39
2022-11-20T09:03:02.106Z,68.68
2022-11-20T09:05:28.773Z,68.75
2022-11-20T09:07:59.087Z,68.04
2022-11-20T09:10:26.241Z,67.76
2022-11-20T09:12:53.494Z,68.42
2022-11-20T09:15:20.715Z,68.96
2022-11-20T09:17:59.131Z,68.28
2022-11-20T09:20:26.910Z,67.56
2022-11-20T09:22:53.358Z,67.58
2022-11-20T09:25:19.791Z,67.63
2022-11-20T09:27:47.053Z,67.49
2022-11-20T09:30:15.689Z,67.72
2022-11-20T09:32:43.388Z,67.58
2022-11-20T09:35:09.853Z,67.16
2022-11-20T09:37:36.441Z,67.87
2022-11-20T09:40:02.986Z,67.90
2022-11-20T09:42:52.703Z,67.55
2022-11-20T09:45:29.673Z,67.62
2022-11-20T09:48:23.957Z,67.87
2022-11-20T09:51:02.906Z,67.80
2022-11-20T09:53:45.959Z,66.88
2022-11-20T09:56:16.995Z,66.93
2022-11-20T09:58:54.724Z,67.13
2022-11-20T10:01:27.049Z,66.65
2022-11-20T10:04:04.505Z,67.25
2022-11-20T10:06:40.612Z,66.99
2022-11-20T10:09:16.996Z,67.62
2022-11-20T10:12:22.316Z,66.40
2022-11-20T10:15:07.449Z,65.76
2022-11-20T10:17:51.963Z,66.96
2022-11-20T10:20:33.568Z,67.22
2022-11-20T10:23:24.273Z,66.86
2022-11-20T10:25:58.313Z,67.61
2022-11-20T10:28:35.817Z,66.84
2022-11-20T10:31:09.325Z,66.78
2022-11-20T10:34:10.610Z,66.27
2022-11-20T10:36:51.571Z,67.09
2022-11-20T10:39:23.104Z,67.14
2022-11-20T10:41:52.871Z,66.96
2022-11-20T10:44:42.926Z,66.70
2022-11-20T10:47:17.336Z,66.37
2022-11-20T10:49:50.569Z,66.75
2022-11-20T10:52:32.210Z,65.88
2022-11-20T10:54:58.573Z,66.66
2022-11-20T10:57:47.663Z,65.09
2022-11-20T11:00:14.832Z,65.69
2022-11-20T11:02:48.928Z,64.90
2022-11-20T11:05:21.227Z,65.07
2022-11-20T11:07:51.449Z,65.15
2022-11-20T11:10:39.462Z,64.00
2022-11-20T11:13:05.901Z,64.39
2022-11-20T11:15:40.735Z,63.31
2022-11-20T11:18:11.406Z,63.35
2022-11-20T11:20:38.474Z,62.32
2022-11-20T11:23:06.527Z,61.48
2022-11-20T11:25:37.546Z,61.73
2022-11-20T11:28:19.059Z,60.72
2022-11-20T11:30:46.221Z,60.35
2022-11-20T11:33:27.442Z,60.77
2022-11-20T11:36:03.746Z,61.11
2022-11-20T11:38:35.177Z,61.14
2022-11-20T11:41:02.501Z,61.68
2022-11-20T11:43:55.958Z,62.18
2022-11-20T11:46:36.317Z,62.97
2022-11-20T11:49:17.157Z,63.01
2022-11-20T11:52:04.794Z,63.41
2022-11-20T11:54:34.570Z,63.23
2022-11-20T11:57:04.588Z,63.57
2022-11-20T12:00:09.100Z,63.17
2022-11-20T12:02:40.079Z,62.26
2022-11-20T12:05:44.621Z,62.99
2022-11-20T12:08:40.304Z,63.33
2022-11-20T12:11:20.149Z,63.56
2022-11-20T12:13:52.461Z,63.27
2022-11-20T12:16:20.998Z,62.56
2022-11-20T12:18:50.956Z,62.30
2022-11-20T12:21:23.096Z,63.02
2022-11-20T12:24:07.614Z,62.82
2022-11-20T12:26:57.232Z,62.44
2022-11-20T12:29:51.272Z,62.70
2022-11-20T12:32:23.362Z,62.71
2022-11-20T12:35:17.577Z,62.33
2022-11-20T12:38:02.328Z,62.63
2022-11-20T12:40:43.628Z,62.35
2022-11-20T12:43:40.660Z,62.83
2022-11-20T12:46:07.018Z,62.90
2022-11-20T12:48:50.133Z,63.60
2022-11-20T12:51:19.408Z,63.41
2022-11-20T12:54:10.049Z,64.05
2022-11-20T12:57:18.214Z,63.83
2022-11-20T12:59:54.231Z,63.56
2022-11-20T13:02:27.041Z,63.95
2022-11-20T13:05:10.697Z,64.45
2022-11-20T13:07:37.641Z,64.74
2022-11-20T13:10:11.733Z,64.18
2022-11-20T13:12:52.646Z,63.71
2022-11-20T13:15:35.064Z,64.87
2022-11-20T13:18:04.100Z,64.87
2022-11-20T13:20:34.084Z,65.72
2022-11-20T13:23:00.707Z,66.41
2022-11-20T13:25:27.148Z,66.52
2022-11-20T13:27:55.055Z,66.50
2022-11-20T13:30:26.686Z,65.54
2022-11-20T13:33:00.732Z,66.21
2022-11-20T13:35:30.518Z,66.37
2022-11-20T13:38:09.707Z,67.18
2022-11-20T13:40:52.253Z,67.54
2022-11-20T13:43:41.679Z,66.53
2022-11-20T13:46:10.103Z,66.20
2022-11-20T13:48:42.355Z,66.15
2022-11-20T13:51:23.217Z,67.47
2022-11-20T13:54:18.979Z,67.00
2022-11-20T13:57:04.236Z,67.53
2022-11-20T13:59:52.196Z,67.31
2022-11-20T14:02:20.686Z,67.20
2022-11-20T14:04:50.399Z,66.95
2022-11-20T14:07:19.751Z,67.48
2022-11-20T14:09:54.477Z,67.15
2022-11-20T14:12:32.988Z,66.92
2022-11-20T14:14:59.890Z,66.65
2022-11-20T14:17:35.846Z,65.76
2022-11-20T14:20:06.282Z,66.83
2022-11-20T14:22:33.111Z,66.68
2022-11-20T14:25:15.118Z,66.53
2022-11-20T14:27:43.866Z,65.91
2022-11-20T14:30:16.092Z,65.14
2022-11-20T14:32:43.937Z,65.73
2022-11-20T14:35:19.928Z,65.33
2022-11-20T14:37:46.669Z,66.65
2022-11-20T14:40:36.020Z,65.95
2022-11-20T14:43:17.224Z,65.85
2022-11-20T14:45:44.781Z,65.69
2022-11-20T14:48:12.424Z,66.16
2022-11-20T14:50:39.263Z,66.38
2022-11-20T14:53:05.915Z,66.23
2022-11-20T14:55:38.230Z,65.87
2022-11-20T14:58:07.504Z,65.06
2022-11-20T15:00:35.760Z,65.17
2022-11-20T15:03:02.321Z,66.07
2022-11-20T15:05:49.252Z,65.59
2022-11-20T15:08:17.202Z,65.16
2022-11-20T15:10:49.281Z,64.97
2022-11-20T15:13:37.153Z,65.26
2022-11-20T15:16:14.184Z,65.12
2022-11-20T15:18:44.682Z,65.12
2022-11-20T15:21:13.482Z,65.57
2022-11-20T15:23:39.955Z,65.56
2022-11-20T15:26:07.788Z,65.42
2022-11-20T15:28:42.125Z,64.86
2022-11-20T15:31:13.061Z,65.66
2022-11-20T15:33:39.587Z,65.71
2022-11-20T15:36:06.148Z,65.21
2022-11-20T15:38:32.585Z,65.43
2022-11-20T15:40:59.113Z,65.12
2022-11-20T15:43:25.552Z,65.22
2022-11-20T15:45:55.594Z,65.71
2022-11-20T15:48:28.914Z,65.00
2022-11-20T15:51:18.017Z,65.05
2022-11-20T15:53:44.613Z,65.05
2022-11-20T15:56:15.036Z,65.76
2022-11-20T15:58:42.316Z,65.09
2022-11-20T16:01:17.425Z,65.37
2022-11-20T16:03:44.321Z,65.37
2022-11-20T16:06:10.720Z,65.23
2022-11-20T16:08:37.321Z,65.16
2022-11-20T16:11:04.360Z,64.82
2022-11-20T16:13:51.589Z,65.28
2022-11-20T16:16:22.531Z,65.09
2022-11-20T16:18:49.682Z,65.45
2022-11-20T16:21:16.352Z,65.80
2022-11-20T16:23:43.425Z,64.88
2022-11-20T16:26:14.587Z,65.58
2022-11-20T16:28:41.783Z,66.16
2022-11-20T16:31:17.106Z,65.72
2022-11-20T16:33:43.997Z,66.36
2022-11-20T16:36:15.195Z,65.74
2022-11-20T16:38:42.031Z,66.36
2022-11-20T16:41:15.864Z,66.37
2022-11-20T16:43:52.223Z,66.60
2022-11-20T16:46:21.757Z,66.66
2022-11-20T16:49:03.289Z,66.48
2022-11-20T16:51:32.535Z,66.92
2022-11-20T16:54:02.408Z,66.80
2022-11-20T16:56:28.847Z,66.05
2022-11-20T16:58:57.545Z,66.08
2022-11-20T17:01:25.795Z,66.28
2022-11-20T17:04:03.244Z,66.34
2022-11-20T17:06:34.180Z,66.42
2022-11-20T17:09:00.940Z,65.61
2022-11-20T17:11:28.474Z,66.60
2022-11-20T17:13:56.166Z,66.62
2022-11-20T17:16:24.180Z,66.67
2022-11-20T17:18:50.798Z,66.25
2022-11-20T17:21:18.838Z,66.43
2022-11-20T17:23:46.575Z,66.02
2022-11-20T17:26:22.301Z,65.96
2022-11-20T17:29:02.988Z,65.54
2022-11-20T17:31:31.594Z,65.61
2022-11-20T17:34:00.196Z,66.81
2022-11-20T17:36:28.004Z,66.36
2022-11-20T17:38:54.721Z,66.97
2022-11-20T17:41:25.162Z,67.16
2022-11-20T17:43:56.302Z,66.46
2022-11-20T17:46:25.261Z,66.60
2022-11-20T17:48:52.052Z,67.27
2022-11-20T17:51:27.639Z,67.72
2022-11-20T17:53:56.467Z,67.13
2022-11-20T17:56:41.660Z,67.14
2022-11-20T17:59:12.720Z,67.94
2022-11-20T18:01:40.386Z,67.79
2022-11-20T18:04:07.049Z,67.27
2022-11-20T18:06:33.654Z,66.82
2022-11-20T18:09:02.540Z,66.61
2022-11-20T18:11:33.624Z,66.58
2022-11-20T18:14:21.173Z,67.86
2022-11-20T18:16:53.577Z,68.54
2022-11-20T18:19:32.383Z,67.82
2022-11-20T18:22:01.250Z,67.73
2022-11-20T18:24:28.164Z,67.46
2022-11-20T18:26:54.618Z,68.24
2022-11-20T18:29:21.296Z,68.01
2022-11-20T18:31:48.226Z,68.04
2022-11-20T18:34:14.759Z,67.38
2022-11-20T18:36:42.728Z,68.27
2022-11-20T18:39:11.931Z,67.80
2022-11-20T18:41:57.627Z,68.32
2022-11-20T18:44:45.682Z,68.52
2022-11-20T18:47:15.858Z,69.34
2022-11-20T18:49:52.622Z,68.72
2022-11-20T18:52:25.294Z,68.44
2022-11-20T18:54:51.987Z,68.11
2022-11-20T18:57:24.645Z,68.09
2022-11-20T18:59:51.424Z,67.68
2022-11-20T19:02:20.207Z,67.89
2022-11-20T19:04:47.044Z,67.50
2022-11-20T19:07:15.772Z,68.23
2022-11-20T19:09:44.466Z,67.93
2022-11-20T19:12:12.577Z,67.38
2022-11-20T19:14:39.339Z,67.63
2022-11-20T19:17:06.939Z,68.43
2022-11-20T19:19:36.534Z,68.21
2022-11-20T19:22:04.525Z,67.84
2022-11-20T19:24:31.090Z,68.83
2022-11-20T19:26:57.611Z,69.04
2022-11-20T19:29:25.655Z,68.39
2022-11-20T19:31:52.413Z,68.35
2022-11-20T19:34:18.937Z,68.18
2022-11-20T19:36:45.917Z,68.73
2022-11-20T19:39:12.970Z,68.28
2022-11-20T19:41:40.894Z,68.83
2022-11-20T19:44:09.930Z,68.04
2022-11-20T19:46:37.905Z,67.89
2022-11-20T19:49:07.417Z,67.75
2022-11-20T19:51:35.070Z,67.66
2022-11-20T19:54:01.576Z,68.10
2022-11-20T19:56:29.624Z,67.07
2022-11-20T19:58:57.082Z,67.17
2022-11-20T20:01:26.788Z,67.87
2022-11-20T20:03:54.042Z,67.87
2022-11-20T20:06:26.149Z,67.28
2022-11-20T20:09:06.247Z,67.55
2022-11-20T20:11:34.258Z,67.71
2022-11-20T20:14:02.479Z,67.77
2022-11-20T20:16:29.157Z,67.49
2022-11-20T20:18:57.969Z,67.64
2022-11-20T20:21:24.449Z,68.89
2022-11-20T20:23:53.581Z,67.46
2022-11-20T20:26:21.578Z,68.22
2022-11-20T20:28:48.078Z,67.81
2022-11-20T20:31:17.991Z,67.65
2022-11-20T20:33:45.235Z,67.81
2022-11-20T20:36:13.591Z,67.89
2022-11-20T20:38:40.308Z,68.14
2022-11-20T20:41:06.744Z,67.97
2022-11-20T20:43:53.112Z,67.36
2022-11-20T20:46:20.048Z,67.33
2022-11-20T20:48:50.255Z,67.46
2022-11-20T20:51:20.689Z,67.05
2022-11-20T20:53:47.128Z,67.57
2022-11-20T20:56:13.812Z,68.13
2022-11-20T20:58:40.580Z,67.31
2022-11-20T21:01:09.382Z,67.50
2022-11-20T21:03:36.808Z,67.41
2022-11-20T21:06:05.113Z,68.26
2022-11-20T21:08:31.715Z,67.61
2022-11-20T21:11:03.846Z,67.75
2022-11-20T21:13:30.876Z,68.73
2022-11-20T21:15:57.544Z,68.86
2022-11-20T21:18:26.185Z,69.27
2022-11-20T21:21:11.742Z,68.84
2022-11-20T21:23:38.757Z,69.22
2022-11-20T21:26:09.177Z,68.42
2022-11-20T21:28:37.505Z,69.17
2022-11-20T21:31:09.865Z,68.96
2022-11-20T21:33:44.510Z,67.88
2022-11-20T21:36:14.010Z,68.52
2022-11-20T21:38:40.948Z,68.64
2022-11-20T21:41:08.740Z,68.28
2022-11-20T21:43:35.771Z,67.92
2022-11-20T21:46:08.351Z,69.14
2022-11-20T21:48:37.014Z,68.79
2022-11-20T21:51:28.045Z,68.56
2022-11-20T21:53:55.368Z,68.72
2022-11-20T21:56:24.664Z,69.04
2022-11-20T21:58:53.172Z,68.91
2022-11-20T22:01:27.947Z,68.93
2022-11-20T22:04:02.416Z,69.58
2022-11-20T22:06:34.136Z,70.06
2022-11-20T22:09:03.804Z,70.04
2022-11-20T22:11:30.720Z,69.36
2022-11-20T22:14:15.606Z,69.02
2022-11-20T22:16:42.317Z,68.80
2022-11-20T22:19:09.296Z,69.66
2022-11-20T22:21:38.439Z,68.94
2022-11-20T22:24:04.940Z,69.18
2022-11-20T22:26:39.657Z,68.42
2022-11-20T22:29:07.640Z,69.40
2022-11-20T22:31:34.157Z,69.55
2022-11-20T22:34:02.454Z,70.06
2022-11-20T22:36:31.082Z,68.70
2022-11-20T22:38:58.191Z,70.32
2022-11-20T22:41:27.381Z,69.54
2022-11-20T22:43:56.223Z,69.38
2022-11-20T22:46:23.526Z,68.39
2022-11-20T22:48:51.195Z,69.34
2022-11-20T22:51:22.175Z,68.50
2022-11-20T22:53:49.337Z,67.77
2022-11-20T22:56:17.198Z,67.67
2022-11-20T22:58:48.406Z,67.51
2022-11-20T23:01:20.094Z,67.23
2022-11-20T23:03:48.646Z,67.70
2022-11-20T23:06:16.816Z,67.65
2022-11-20T23:08:43.818Z,67.60
2022-11-20T23:11:12.592Z,68.82
2022-11-20T23:13:39.447Z,69.55
2022-11-20T23:16:17.653Z,69.10
2022-11-20T23:18:44.876Z,68.27
2022-11-20T23:21:13.323Z,68.76
2022-11-20T23:23:40.333Z,69.16
2022-11-20T23:26:12.139Z,69.49
2022-11-20T23:28:40.455Z,69.25
2022-11-20T23:31:07.832Z,68.73
2022-11-20T23:33:39.318Z,69.15
2022-11-20T23:36:06.658Z,68.72
2022-11-20T23:38:33.884Z,69.67
2022-11-20T23:41:01.241Z,68.87
2022-11-20T23:43:27.789Z,68.38
2022-11-20T23:45:59.618Z,67.61
2022-11-20T23:48:28.690Z,68.88
2022-11-20T23:50:55.881Z,69.32
2022-11-20T23:53:22.787Z,68.46
2022-11-20T23:55:54.211Z,69.07
2022-11-20T23:58:21.313Z,69.85
